Time;durP1;ratioP1;P1;durP2;ratioP2;P2;SDS_P1;SDS_P2;PMS_P1;PMS_P2;Temp;Humidity;BMP_temperature;BMP_pressure;BME280_temperature;BME280_humidity;BME280_pressure;Samples;Min_cycle;Max_cycle;Signal;HPM_P1;HPM_P2
2022/09/18 00:02:01;;;;;;;7.75;0.77;;;11.20;99.90;;;;;;5017732;28;20510;-92
2022/09/18 00:04:27;;;;;;;11.80;2.40;;;11.20;99.90;;;;;;5018124;28;20596;-91
2022/09/18 00:06:53;;;;;;;7.18;0.57;;;11.30;99.90;;;;;;5018060;28;20131;-92
2022/09/18 00:09:19;;;;;;;8.98;1.45;;;11.00;99.90;;;;;;5050983;28;20045;-91
2022/09/18 00:11:47;;;;;;;18.25;1.13;;;10.80;99.90;;;;;;5051018;28;20044;-92
2022/09/18 00:14:17;;;;;;;21.92;3.28;;;10.10;99.90;;;;;;5017794;28;20496;-92
2022/09/18 00:16:43;;;;;;;16.38;1.38;;;10.10;99.90;;;;;;5035133;28;20036;-91
2022/09/18 00:19:09;;;;;;;5.78;0.90;;;11.40;99.90;;;;;;5034332;28;20044;-92
2022/09/18 00:21:36;;;;;;;12.07;1.98;;;10.20;99.90;;;;;;5051131;28;20040;-91
2022/09/18 00:24:03;;;;;;;12.43;1.25;;;10.20;99.90;;;;;;5034025;28;20060;-90
2022/09/18 00:26:29;;;;;;;14.52;2.33;;;10.20;99.90;;;;;;5051170;28;20044;-91
2022/09/18 00:28:56;;;;;;;14.65;2.05;;;11.60;99.90;;;;;;5067790;28;20059;-92
2022/09/18 00:31:24;;;;;;;9.50;1.23;;;10.40;99.90;;;;;;5033690;28;20040;-91
2022/09/18 00:33:51;;;;;;;11.20;1.50;;;10.20;99.90;;;;;;5034498;28;20040;-91
2022/09/18 00:36:17;;;;;;;11.70;1.33;;;10.20;99.90;;;;;;5034003;28;20127;-91
2022/09/18 00:38:44;;;;;;;8.07;1.27;;;10.20;99.90;;;;;;5034541;28;20079;-91
2022/09/18 00:41:22;;;;;;;8.32;0.85;;;10.20;99.90;;;;;;5050500;28;20044;-91
2022/09/18 00:43:50;;;;;;;9.50;1.48;;;10.20;99.90;;;;;;5034386;28;20212;-91
2022/09/18 00:46:35;;;;;;;11.10;1.33;;;10.90;99.90;;;;;;5034440;28;20040;-91
2022/09/18 00:49:18;;;;;;;8.20;0.88;;;10.30;99.90;;;;;;5050548;28;20052;-91
2022/09/18 00:51:45;;;;;;;;;;;10.30;99.90;;;;;;5050702;28;20037;-90
2022/09/18 00:54:20;;;;;;;8.55;1.05;;;10.30;99.90;;;;;;5033999;28;19920;-92
2022/09/18 00:56:47;;;;;;;4.22;0.82;;;10.40;99.90;;;;;;5050151;28;20541;-90
2022/09/18 00:59:17;;;;;;;8.55;0.90;;;10.40;99.90;;;;;;5050743;28;20100;-92
2022/09/18 01:01:43;;;;;;;5.57;0.70;;;10.40;99.90;;;;;;5033687;28;20434;-91
2022/09/18 01:04:12;;;;;;;6.95;1.15;;;10.40;99.90;;;;;;5050800;28;20098;-91
2022/09/18 01:07:03;;;;;;;6.00;0.80;;;10.90;99.90;;;;;;5050393;28;20484;-90
2022/09/18 01:09:55;;;;;;;13.00;1.20;;;10.40;99.90;;;;;;5033496;28;20045;-92
2022/09/18 01:12:44;;;;;;;6.32;0.65;;;10.30;99.90;;;;;;5050624;28;20488;-91
2022/09/18 01:15:18;;;;;;;5.20;0.90;;;10.30;99.90;;;;;;5044582;28;20135;-91
2022/09/18 01:18:21;;;;;;;10.38;1.17;;;10.20;99.90;;;;;;5032924;28;20042;-92
2022/09/18 01:20:53;;;;;;;4.68;0.68;;;10.20;99.90;;;;;;5050315;28;20043;-91
2022/09/18 01:23:35;;;;;;;13.50;1.17;;;10.20;99.90;;;;;;5032663;28;20052;-91
2022/09/18 01:26:32;;;;;;;3.63;0.65;;;10.10;99.90;;;;;;5050131;28;20032;-93
2022/09/18 01:29:07;;;;;;;8.68;0.85;;;10.10;99.90;;;;;;5050827;28;20086;-92
2022/09/18 01:32:08;;;;;;;7.15;0.73;;;10.00;99.90;;;;;;5050924;28;20090;-91
2022/09/18 01:34:52;;;;;;;12.02;1.30;;;10.00;99.90;;;;;;5039071;28;20080;-91
2022/09/18 01:37:25;;;;;;;5.18;0.52;;;9.90;99.90;;;;;;5050996;28;20048;-92
2022/09/18 01:40:08;;;;;;;8.02;0.77;;;10.00;99.90;;;;;;5035328;28;20070;-91
2022/09/18 01:42:35;;;;;;;5.55;0.60;;;10.00;99.90;;;;;;5035521;28;20048;-94
2022/09/18 01:45:06;;;;;;;10.43;0.90;;;10.00;99.90;;;;;;5034479;28;20049;-92
2022/09/18 01:47:43;;;;;;;5.20;0.70;;;9.90;99.90;;;;;;5050465;28;20041;-92
2022/09/18 01:50:11;;;;;;;6.65;0.70;;;9.90;99.90;;;;;;5050383;28;20049;-93
2022/09/18 01:52:41;;;;;;;4.43;0.60;;;10.80;99.90;;;;;;5050965;28;20121;-93
2022/09/18 01:55:14;;;;;;;11.20;1.00;;;9.90;99.90;;;;;;5050530;28;20491;-94
2022/09/18 01:57:47;;;;;;;;;;;10.00;99.90;;;;;;5033767;28;20170;-93
2022/09/18 02:00:13;;;;;;;5.05;0.80;;;9.90;99.90;;;;;;5033217;28;19924;-94
2022/09/18 02:02:55;;;;;;;20.25;1.25;;;9.90;99.90;;;;;;5033408;28;20067;-94
2022/09/18 02:05:32;;;;;;;5.73;0.80;;;9.90;99.90;;;;;;5033481;28;20052;-93
2022/09/18 02:08:15;;;;;;;8.20;0.70;;;10.40;99.90;;;;;;5026875;28;20049;-92
2022/09/18 02:10:51;;;;;;;11.20;1.00;;;9.90;99.90;;;;;;5032661;28;20044;-92
2022/09/18 02:13:23;;;;;;;7.28;0.80;;;10.70;99.90;;;;;;5032586;28;20510;-93
2022/09/18 02:15:55;;;;;;;6.82;0.93;;;9.90;99.90;;;;;;5049461;28;20041;-93
2022/09/18 02:18:27;;;;;;;4.63;1.00;;;10.60;99.90;;;;;;5032835;28;20036;-92
2022/09/18 02:20:54;;;;;;;4.85;0.95;;;9.90;99.90;;;;;;5050242;28;20507;-93
2022/09/18 02:23:21;;;;;;;7.20;1.55;;;10.70;99.90;;;;;;5032478;28;20053;-93
2022/09/18 02:25:54;;;;;;;6.15;1.08;;;10.10;99.90;;;;;;5016350;28;20322;-94
2022/09/18 02:28:23;;;;;;;14.10;1.77;;;9.90;99.90;;;;;;5049500;28;20480;-91
2022/09/18 02:30:49;;;;;;;10.30;0.85;;;10.40;99.90;;;;;;5032520;28;20045;-92
2022/09/18 02:33:30;;;;;;;10.55;1.30;;;10.00;99.90;;;;;;5016729;28;20089;-93
2022/09/18 02:36:18;;;;;;;10.00;0.80;;;10.00;99.90;;;;;;5048876;28;20059;-93
2022/09/18 02:39:04;;;;;;;9.30;0.95;;;10.00;99.90;;;;;;5032366;28;20041;-92
2022/09/18 02:41:47;;;;;;;12.18;1.10;;;10.00;99.90;;;;;;5035526;28;20051;-92
2022/09/18 02:44:22;;;;;;;6.10;1.00;;;10.00;99.90;;;;;;5036298;28;20054;-93
2022/09/18 02:47:04;;;;;;;9.38;0.90;;;10.00;99.90;;;;;;5053607;28;20056;-92
2022/09/18 02:50:26;;;;;;;5.90;0.85;;;10.10;99.90;;;;;;5036264;28;20095;-94
2022/09/18 02:52:58;;;;;;;15.60;1.60;;;10.10;99.90;;;;;;4937458;28;20110;-93
2022/09/18 02:55:28;;;;;;;9.10;2.13;;;10.20;99.90;;;;;;4938258;28;20482;-95
2022/09/18 02:57:59;;;;;;;8.45;0.82;;;11.10;99.90;;;;;;5019274;28;20098;-93
2022/09/18 03:00:27;;;;;;;11.65;0.77;;;11.50;99.90;;;;;;5035478;28;20065;-94
2022/09/18 03:02:57;;;;;;;7.85;1.20;;;11.30;99.90;;;;;;5036328;28;20127;-91
2022/09/18 03:05:26;;;;;;;;;;;10.40;99.90;;;;;;5053838;28;20052;-92
2022/09/18 03:07:55;;;;;;;13.10;2.00;;;10.40;99.90;;;;;;5052838;28;20320;-91
2022/09/18 03:10:24;;;;;;;9.75;1.00;;;10.40;99.90;;;;;;5053088;28;20046;-91
2022/09/18 03:12:50;;;;;;;13.63;1.10;;;10.40;99.90;;;;;;5019476;28;20173;-90
2022/09/18 03:15:16;;;;;;;12.40;2.38;;;10.40;99.90;;;;;;5052532;28;20076;-90
2022/09/18 03:17:41;;;;;;;8.73;0.95;;;10.40;99.90;;;;;;5035577;28;20044;-94
2022/09/18 03:20:08;;;;;;;7.60;1.13;;;11.40;99.90;;;;;;5051830;28;20051;-90
2022/09/18 03:22:33;;;;;;;12.15;1.00;;;10.50;99.90;;;;;;5037036;28;20094;-91
2022/09/18 03:24:59;;;;;;;7.43;0.90;;;11.70;99.90;;;;;;5037648;28;20068;-89
2022/09/18 03:27:24;;;;;;;11.40;0.90;;;10.60;99.90;;;;;;5022266;28;20044;-93
2022/09/18 03:29:50;;;;;;;6.22;0.70;;;11.60;99.90;;;;;;5046535;28;20384;-92
2022/09/18 03:32:16;;;;;;;7.80;1.30;;;10.90;99.90;;;;;;5063189;28;20041;-90
2022/09/18 03:34:41;;;;;;;8.85;0.90;;;10.50;99.90;;;;;;5029432;28;20136;-91
2022/09/18 03:37:07;;;;;;;5.88;0.82;;;11.10;99.90;;;;;;5047096;28;20042;-91
2022/09/18 03:39:32;;;;;;;5.88;0.90;;;10.90;99.90;;;;;;5062921;28;20071;-91
2022/09/18 03:41:58;;;;;;;13.52;1.27;;;11.40;99.90;;;;;;5059764;28;20048;-91
2022/09/18 03:44:24;;;;;;;3.90;0.63;;;10.50;99.90;;;;;;5020324;28;20074;-90
2022/09/18 03:46:49;;;;;;;7.82;0.95;;;11.70;99.90;;;;;;5037328;28;20040;-91
2022/09/18 03:49:15;;;;;;;6.50;0.65;;;10.50;99.90;;;;;;5053021;28;20036;-90
2022/09/18 03:51:41;;;;;;;6.97;0.95;;;11.00;99.90;;;;;;5034752;28;20036;-91
2022/09/18 03:54:06;;;;;;;5.45;1.92;;;11.30;99.90;;;;;;5035326;28;20407;-90
2022/09/18 03:56:32;;;;;;;5.40;0.95;;;10.60;99.90;;;;;;5068141;28;20044;-90
2022/09/18 03:58:58;;;;;;;7.00;0.70;;;10.50;99.90;;;;;;5035229;28;20037;-91
2022/09/18 04:01:24;;;;;;;8.05;1.00;;;10.50;99.90;;;;;;5051139;28;20049;-91
2022/09/18 04:03:51;;;;;;;8.65;1.48;;;10.40;99.90;;;;;;5034904;28;20049;-91
2022/09/18 04:06:17;;;;;;;9.75;0.85;;;10.40;99.90;;;;;;5034577;28;20127;-90
2022/09/18 04:08:43;;;;;;;5.18;0.60;;;11.00;99.90;;;;;;5034735;28;20127;-91
2022/09/18 04:11:08;;;;;;;6.53;0.85;;;10.40;99.90;;;;;;5017948;28;20055;-90
2022/09/18 04:13:34;;;;;;;4.97;0.95;;;10.80;99.90;;;;;;5034169;28;20052;-90
2022/09/18 04:16:00;;;;;;;4.70;0.40;;;10.30;99.90;;;;;;5034892;28;20053;-91
2022/09/18 04:18:26;;;;;;;6.65;1.23;;;10.30;99.90;;;;;;5034240;28;20066;-91
2022/09/18 04:20:51;;;;;;;6.20;0.80;;;10.30;99.90;;;;;;5018673;28;20088;-92
2022/09/18 04:23:17;;;;;;;7.25;0.80;;;10.90;99.90;;;;;;5021451;28;20501;-91
2022/09/18 04:25:43;;;;;;;2.47;0.60;;;10.30;99.90;;;;;;4998149;28;20053;-90
2022/09/18 04:28:09;;;;;;;5.15;0.75;;;10.30;99.90;;;;;;5014375;28;20175;-91
2022/09/18 04:30:36;;;;;;;7.10;1.30;;;10.40;99.90;;;;;;5014211;28;20142;-91
2022/09/18 04:33:02;;;;;;;6.47;0.93;;;11.50;99.90;;;;;;5014844;28;20045;-90
2022/09/18 04:35:28;;;;;;;12.27;1.30;;;10.40;99.90;;;;;;5014367;28;20507;-92
2022/09/18 04:37:54;;;;;;;10.63;1.58;;;11.70;99.90;;;;;;5030702;28;20053;-92
2022/09/18 04:40:19;;;;;;;7.60;0.52;;;10.40;99.90;;;;;;5031205;28;20059;-93
2022/09/18 04:42:45;;;;;;;4.72;0.95;;;10.90;99.90;;;;;;5030998;28;20044;-91
2022/09/18 04:45:11;;;;;;;7.28;0.63;;;10.40;99.90;;;;;;5014060;28;20248;-92
2022/09/18 04:47:37;;;;;;;8.05;1.23;;;11.60;99.90;;;;;;5030616;28;20037;-93
2022/09/18 04:50:03;;;;;;;6.75;1.25;;;11.60;99.90;;;;;;5014076;28;20103;-93
2022/09/18 04:52:29;;;;;;;11.07;1.38;;;10.40;99.90;;;;;;4997576;28;20059;-94
2022/09/18 04:54:56;;;;;;;10.45;1.65;;;10.40;99.90;;;;;;4998370;28;20141;-93
2022/09/18 04:57:21;;;;;;;8.55;0.70;;;11.60;99.90;;;;;;5014065;28;20044;-94
2022/09/18 04:59:47;;;;;;;4.32;0.60;;;10.40;99.90;;;;;;5047709;28;20122;-94
2022/09/18 05:02:13;;;;;;;7.57;0.68;;;11.00;99.90;;;;;;5030249;28;20479;-94
2022/09/18 05:04:38;;;;;;;3.95;0.68;;;10.50;99.90;;;;;;5013983;28;20061;-92
2022/09/18 05:07:05;;;;;;;8.35;1.80;;;11.80;99.90;;;;;;4998020;28;20124;-91
2022/09/18 05:09:31;;;;;;;4.60;0.85;;;11.70;99.90;;;;;;4997691;28;20044;-92
2022/09/18 05:11:57;;;;;;;11.77;1.73;;;10.50;99.90;;;;;;5014282;28;20503;-91
2022/09/18 05:14:23;;;;;;;8.65;1.25;;;11.60;99.90;;;;;;5013017;28;20052;-91
2022/09/18 05:16:48;;;;;;;7.20;0.85;;;10.50;99.90;;;;;;5031339;28;20253;-93
2022/09/18 05:19:14;;;;;;;6.35;0.95;;;10.60;99.90;;;;;;5014463;28;20044;-92
2022/09/18 05:21:40;;;;;;;4.57;0.98;;;10.70;99.90;;;;;;5014414;28;20048;-90
2022/09/18 05:24:05;;;;;;;7.65;0.80;;;10.50;99.90;;;;;;5032819;28;20048;-91
2022/09/18 05:26:31;;;;;;;7.47;1.00;;;10.50;99.90;;;;;;5016688;28;20438;-92
2022/09/18 05:28:56;;;;;;;7.72;0.85;;;11.10;99.90;;;;;;5050583;28;20040;-92
2022/09/18 05:31:22;;;;;;;7.13;0.93;;;11.20;99.90;;;;;;5017160;28;20044;-91
2022/09/18 05:33:48;;;;;;;9.25;2.03;;;10.50;99.90;;;;;;5034025;28;20047;-90
2022/09/18 05:36:13;;;;;;;8.18;1.13;;;10.50;99.90;;;;;;5049900;28;20089;-91
2022/09/18 05:38:39;;;;;;;8.32;0.63;;;10.90;99.90;;;;;;5050043;28;20046;-92
2022/09/18 05:41:05;;;;;;;5.53;1.27;;;10.70;99.90;;;;;;5016742;28;20048;-94
2022/09/18 05:43:31;;;;;;;8.40;1.58;;;10.60;99.90;;;;;;5016189;28;20123;-93
2022/09/18 05:46:01;;;;;;;8.18;0.47;;;10.60;99.90;;;;;;5017448;28;20079;-94
2022/09/18 05:48:27;;;;;;;5.50;0.93;;;11.10;99.90;;;;;;5033147;28;20053;-94
2022/09/18 05:50:53;;;;;;;4.82;0.80;;;11.20;99.90;;;;;;5050373;28;20047;-91
2022/09/18 05:53:20;;;;;;;4.70;0.70;;;10.60;99.90;;;;;;5032888;28;20399;-90
2022/09/18 05:55:46;;;;;;;7.45;0.80;;;10.60;99.90;;;;;;5032509;28;20630;-90
2022/09/18 05:58:14;;;;;;;7.38;0.50;;;10.60;99.90;;;;;;5032996;28;20107;-91
2022/09/18 06:00:40;;;;;;;5.30;1.13;;;10.60;99.90;;;;;;5031880;28;20088;-90
2022/09/18 06:03:10;;;;;;;8.63;0.93;;;10.60;99.90;;;;;;5032213;28;20056;-89
2022/09/18 06:05:39;;;;;;;3.15;0.50;;;10.60;99.90;;;;;;5032252;28;20036;-90
2022/09/18 06:08:07;;;;;;;9.77;1.05;;;10.60;99.90;;;;;;5033619;28;20053;-92
2022/09/18 06:10:36;;;;;;;7.03;0.75;;;11.90;99.90;;;;;;5032322;28;20040;-89
2022/09/18 06:13:06;;;;;;;8.50;1.42;;;10.70;99.90;;;;;;5032406;28;20442;-91
2022/09/18 06:15:33;;;;;;;5.57;0.70;;;10.60;99.90;;;;;;5034489;28;20070;-89
2022/09/18 06:17:59;;;;;;;7.07;0.88;;;11.30;99.90;;;;;;5020135;28;20389;-90
2022/09/18 06:20:25;;;;;;;13.07;1.13;;;10.60;99.90;;;;;;5036078;28;20041;-88
2022/09/18 06:22:51;;;;;;;13.23;2.28;;;10.70;99.90;;;;;;5019601;28;20524;-89
2022/09/18 06:25:20;;;;;;;5.60;0.95;;;10.70;99.90;;;;;;5052725;28;20059;-90
2022/09/18 06:27:53;;;;;;;7.53;1.00;;;11.90;99.90;;;;;;5020321;28;20032;-90
2022/09/18 06:30:19;;;;;;;;;;;11.50;99.90;;;;;;5020877;28;20047;-90
2022/09/18 06:32:45;;;;;;;11.02;2.00;;;11.60;99.90;;;;;;5052926;28;19921;-90
2022/09/18 06:35:10;;;;;;;6.65;0.90;;;11.70;99.90;;;;;;5035607;28;20533;-92
2022/09/18 06:37:36;;;;;;;11.38;1.17;;;11.30;99.90;;;;;;5069869;28;20063;-92
2022/09/18 06:40:03;;;;;;;10.35;1.05;;;11.70;99.90;;;;;;5069028;28;20174;-90
2022/09/18 06:42:29;;;;;;;10.98;1.02;;;10.80;99.90;;;;;;5019929;28;20404;-89
2022/09/18 06:44:55;;;;;;;14.57;1.17;;;10.90;99.90;;;;;;5034687;28;20045;-88
2022/09/18 06:47:21;;;;;;;6.18;1.00;;;11.40;99.90;;;;;;5036125;28;20044;-90
2022/09/18 06:49:52;;;;;;;6.40;1.42;;;10.90;99.90;;;;;;5036785;28;20063;-91
2022/09/18 06:52:17;;;;;;;9.20;1.00;;;10.90;99.90;;;;;;5035669;28;20488;-90
2022/09/18 06:54:43;;;;;;;5.25;1.38;;;10.90;99.90;;;;;;5036150;28;20052;-86
2022/09/18 06:57:09;;;;;;;9.63;0.82;;;11.70;99.90;;;;;;5052389;28;20066;-91
2022/09/18 06:59:36;;;;;;;5.45;0.70;;;11.20;99.90;;;;;;5036711;28;20052;-91
2022/09/18 07:02:02;;;;;;;5.07;0.85;;;11.10;99.90;;;;;;5036250;28;20152;-88
2022/09/18 07:04:28;;;;;;;7.72;0.93;;;11.10;99.90;;;;;;5052352;28;20099;-89
2022/09/18 07:06:53;;;;;;;5.70;1.25;;;11.10;99.90;;;;;;5036122;28;20407;-91
2022/09/18 07:09:19;;;;;;;8.90;2.53;;;11.10;99.90;;;;;;5035504;28;20036;-89
2022/09/18 07:11:45;;;;;;;8.07;0.80;;;11.40;99.90;;;;;;5035952;28;20044;-91
2022/09/18 07:14:10;;;;;;;5.63;0.70;;;12.20;99.90;;;;;;5036031;28;20090;-90
2022/09/18 07:16:36;;;;;;;5.90;0.93;;;11.20;99.90;;;;;;5038105;28;20055;-91
2022/09/18 07:19:02;;;;;;;8.23;0.88;;;11.20;99.90;;;;;;5053315;28;20522;-90
2022/09/18 07:21:29;;;;;;;3.28;0.50;;;11.60;99.90;;;;;;5020723;28;20048;-91
2022/09/18 07:23:55;;;;;;;10.27;0.85;;;11.20;99.90;;;;;;5037473;28;20066;-88
2022/09/18 07:26:21;;;;;;;4.47;0.60;;;11.20;99.90;;;;;;5036085;28;20048;-91
2022/09/18 07:28:46;;;;;;;5.25;1.23;;;11.30;99.90;;;;;;5038452;28;20129;-91
2022/09/18 07:31:14;;;;;;;4.82;0.50;;;11.30;99.90;;;;;;5038108;28;20037;-91
2022/09/18 07:33:39;;;;;;;6.50;0.80;;;11.30;99.90;;;;;;5055027;28;20052;-91
2022/09/18 07:36:05;;;;;;;6.53;0.98;;;11.80;99.90;;;;;;5054430;28;20041;-90
2022/09/18 07:38:33;;;;;;;3.90;0.50;;;11.30;99.90;;;;;;5055122;28;20048;-92
2022/09/18 07:41:03;;;;;;;7.82;0.73;;;11.30;99.90;;;;;;5021713;28;20045;-88
2022/09/18 07:43:29;;;;;;;4.88;0.80;;;11.30;99.90;;;;;;5057844;28;20055;-87
2022/09/18 07:45:55;;;;;;;6.35;0.93;;;11.30;99.90;;;;;;5033675;28;20049;-86
2022/09/18 07:48:22;;;;;;;4.15;0.55;;;11.30;99.90;;;;;;5069596;28;20047;-90
2022/09/18 07:50:48;;;;;;;2.55;0.40;;;11.30;99.90;;;;;;5037306;28;20041;-88
2022/09/18 07:53:13;;;;;;;6.53;0.63;;;11.20;99.90;;;;;;5051892;28;20062;-90
2022/09/18 07:55:41;;;;;;;6.25;0.65;;;11.30;99.90;;;;;;5070974;28;20147;-93
2022/09/18 07:58:08;;;;;;;5.15;0.70;;;11.30;99.90;;;;;;5072654;28;20033;-93
2022/09/18 08:00:35;;;;;;;5.80;0.70;;;11.20;99.90;;;;;;5054015;28;20041;-88
2022/09/18 08:03:05;;;;;;;11.00;0.90;;;11.60;99.90;;;;;;5055347;28;20033;-88
2022/09/18 08:05:32;;;;;;;8.38;0.60;;;11.20;99.90;;;;;;5058920;28;20041;-95
2022/09/18 08:08:05;;;;;;;9.70;1.90;;;11.20;99.90;;;;;;5043465;28;20024;-96
2022/09/18 08:10:33;;;;;;;10.52;0.80;;;11.30;99.90;;;;;;5042406;28;20044;-96
2022/09/18 08:13:02;;;;;;;6.60;0.80;;;11.30;99.90;;;;;;5076550;28;20086;-93
2022/09/18 08:15:29;;;;;;;4.22;0.88;;;11.30;99.90;;;;;;5042654;28;20150;-96
2022/09/18 08:17:55;;;;;;;6.50;0.82;;;11.30;99.90;;;;;;5059967;28;20044;-96
2022/09/18 08:20:21;;;;;;;4.63;0.50;;;12.40;99.90;;;;;;5076180;28;20033;-96
2022/09/18 08:23:19;;;;;;;8.43;1.10;;;11.80;99.90;;;;;;5041950;28;20047;-96
2022/09/18 08:25:46;;;;;;;4.85;0.82;;;11.30;99.90;;;;;;5060270;28;20063;-96
2022/09/18 08:28:57;;;;;;;7.82;1.63;;;10.50;99.90;;;;;;5081335;28;20048;-93
2022/09/18 08:31:40;;;;;;;6.80;0.77;;;10.50;99.90;;;;;;5061499;28;20064;-92
2022/09/18 08:34:36;;;;;;;11.20;4.00;;;11.30;99.90;;;;;;5061873;28;20122;-96
2022/09/18 08:39:59;;;;;;;4.47;0.60;;;11.20;99.90;;;;;;5079418;28;20040;-93
2022/09/18 08:49:47;;;;;;;4.03;0.98;;;10.40;99.90;;;;;;5050637;28;20052;-95
2022/09/18 08:52:31;;;;;;;6.72;0.60;;;11.30;99.90;;;;;;5008803;28;20046;-96
2022/09/18 08:55:03;;;;;;;5.88;0.75;;;11.30;99.90;;;;;;5004591;28;20056;-96
2022/09/18 08:57:48;;;;;;;5.80;0.98;;;12.50;99.90;;;;;;5006420;28;20053;-96
2022/09/18 09:00:18;;;;;;;4.03;0.77;;;11.30;99.90;;;;;;5011973;28;20046;-95
2022/09/18 09:02:49;;;;;;;12.80;1.20;;;11.30;99.90;;;;;;5012397;28;20060;-94
2022/09/18 09:05:19;;;;;;;8.55;1.25;;;11.20;99.90;;;;;;4992156;28;20064;-96
2022/09/18 09:07:59;;;;;;;1.85;0.45;;;11.20;99.90;;;;;;5010068;28;20071;-95
2022/09/18 09:10:48;;;;;;;4.65;0.52;;;11.20;99.90;;;;;;5009911;28;20502;-96
2022/09/18 09:13:51;;;;;;;5.15;0.80;;;11.10;99.90;;;;;;5019164;28;20045;-96
2022/09/18 09:17:04;;;;;;;5.85;1.10;;;11.10;99.90;;;;;;5046097;28;20075;-96
2022/09/18 09:19:55;;;;;;;6.50;1.08;;;11.10;99.90;;;;;;5045104;28;20059;-96
2022/09/18 09:22:58;;;;;;;5.68;0.80;;;11.00;99.90;;;;;;5056576;28;20033;-96
2022/09/18 09:26:14;;;;;;;9.30;1.33;;;11.10;99.90;;;;;;5037113;28;20419;-96
2022/09/18 09:29:14;;;;;;;4.90;1.45;;;11.10;99.90;;;;;;5052486;28;20053;-96
2022/09/18 09:31:45;;;;;;;3.13;0.50;;;11.10;99.90;;;;;;5022735;28;20060;-96
2022/09/18 09:34:29;;;;;;;10.07;1.10;;;11.10;99.90;;;;;;5024073;28;20045;-96
2022/09/18 09:37:22;;;;;;;6.43;1.23;;;11.20;99.90;;;;;;5044112;28;20056;-96
2022/09/18 09:39:57;;;;;;;7.90;0.90;;;11.30;99.90;;;;;;5030965;28;20041;-96
2022/09/18 09:43:00;;;;;;;7.80;1.00;;;11.30;99.90;;;;;;5015851;28;20053;-96
2022/09/18 09:45:52;;;;;;;25.80;2.60;;;11.40;99.90;;;;;;5052281;28;20049;-96
2022/09/18 09:49:10;;;;;;;15.10;1.23;;;11.40;99.90;;;;;;5032800;28;20053;-96
2022/09/18 09:55:47;;;;;;;11.13;0.98;;;11.60;99.90;;;;;;5012708;28;20151;-96
2022/09/18 09:59:05;;;;;;;7.20;1.10;;;11.70;99.90;;;;;;4968049;28;20653;-96
2022/09/18 10:22:10;;;;;;;9.27;0.60;;;13.10;99.90;;;;;;4980906;28;20064;-96
2022/09/18 10:25:13;;;;;;;9.95;1.20;;;11.20;99.90;;;;;;4987911;28;20540;-96
2022/09/18 10:27:39;;;;;;;10.20;2.00;;;12.20;99.90;;;;;;5034386;28;20056;-96
2022/09/18 10:30:17;;;;;;;14.75;2.58;;;12.30;99.90;;;;;;5013370;28;20038;-96
2022/09/18 10:33:09;;;;;;;6.47;0.98;;;12.30;99.90;;;;;;5024151;28;20053;-96
2022/09/18 10:35:45;;;;;;;7.07;1.15;;;12.30;99.90;;;;;;5002823;28;20046;-96
2022/09/18 11:09:08;;;;;;;10.05;0.88;;;13.10;99.90;;;;;;4865005;29;20046;-96
2022/09/18 11:14:45;;;;;;;12.07;2.38;;;12.50;99.90;;;;;;4845742;29;20062;-96
2022/09/18 11:21:25;;;;;;;;;;;13.40;99.90;;;;;;4844230;29;20037;-95
2022/09/18 11:24:15;;;;;;;6.75;0.60;;;13.50;99.90;;;;;;4840477;29;19924;-96
2022/09/18 11:26:49;;;;;;;7.20;1.05;;;13.60;99.90;;;;;;4818279;29;20053;-92
2022/09/18 11:29:22;;;;;;;6.32;0.68;;;13.60;99.90;;;;;;4815663;29;20053;-88
2022/09/18 11:32:16;;;;;;;4.97;0.52;;;13.60;99.90;;;;;;4816330;29;20092;-93
2022/09/18 11:34:49;;;;;;;5.50;0.60;;;13.60;99.90;;;;;;4816717;29;20095;-93
2022/09/18 11:37:30;;;;;;;9.13;1.00;;;13.70;99.90;;;;;;4866178;29;20063;-91
2022/09/18 11:40:06;;;;;;;4.53;1.25;;;13.80;99.90;;;;;;4920705;29;20058;-90
2022/09/18 11:42:32;;;;;;;11.20;1.15;;;13.80;99.90;;;;;;4921922;29;20056;-92
2022/09/18 11:45:52;;;;;;;10.48;1.20;;;13.90;99.90;;;;;;4920333;29;20059;-91
2022/09/18 11:48:44;;;;;;;6.80;1.13;;;13.90;99.90;;;;;;4908343;29;20062;-91
2022/09/18 11:51:15;;;;;;;5.95;2.17;;;13.90;99.90;;;;;;4974353;28;20060;-91
2022/09/18 11:53:50;;;;;;;12.70;1.40;;;13.90;99.90;;;;;;5018107;28;20084;-91
2022/09/18 11:56:50;;;;;;;10.10;1.30;;;13.90;99.90;;;;;;5019773;28;20481;-93
2022/09/18 11:59:41;;;;;;;8.40;1.02;;;13.90;99.90;;;;;;5001151;28;20467;-91
2022/09/18 12:02:13;;;;;;;6.20;0.73;;;13.80;99.90;;;;;;4998898;28;20068;-86
2022/09/18 12:04:42;;;;;;;6.13;0.70;;;13.70;99.90;;;;;;4999152;28;20046;-85
2022/09/18 12:07:34;;;;;;;4.47;0.63;;;14.40;99.90;;;;;;4980067;28;20049;-85
2022/09/18 12:10:30;;;;;;;8.13;0.93;;;13.50;99.90;;;;;;4983527;28;20249;-88
2022/09/18 12:13:16;;;;;;;11.18;1.15;;;13.50;99.90;;;;;;4978813;28;20064;-92
2022/09/18 12:15:47;;;;;;;7.25;0.75;;;13.50;99.90;;;;;;5004931;28;20046;-89
2022/09/18 12:18:25;;;;;;;8.23;1.30;;;13.60;99.90;;;;;;4983211;28;20049;-88
2022/09/18 12:20:56;;;;;;;13.45;1.75;;;13.70;99.90;;;;;;4983535;28;20054;-88
2022/09/18 12:23:25;;;;;;;8.32;1.08;;;13.80;99.90;;;;;;5015662;28;20128;-88
2022/09/18 12:26:23;;;;;;;11.05;1.63;;;14.00;99.90;;;;;;5016266;28;20339;-96
2022/09/18 12:28:49;;;;;;;4.32;0.63;;;14.10;99.90;;;;;;5001644;28;20049;-95
2022/09/18 12:31:44;;;;;;;6.35;0.60;;;14.20;99.90;;;;;;5002212;28;20046;-94
2022/09/18 12:34:35;;;;;;;8.13;1.05;;;14.30;99.90;;;;;;4985716;28;20141;-96
2022/09/18 12:37:28;;;;;;;8.63;1.20;;;14.50;99.90;;;;;;4983899;28;20064;-94
2022/09/18 12:40:14;;;;;;;5.78;1.05;;;14.60;99.90;;;;;;5002600;28;20042;-94
2022/09/18 12:43:26;;;;;;;10.73;1.02;;;14.60;99.90;;;;;;4985690;28;20072;-95
2022/09/18 12:46:11;;;;;;;8.82;0.80;;;14.70;99.90;;;;;;4982196;28;20129;-90
2022/09/18 12:49:10;;;;;;;11.02;2.15;;;14.80;99.90;;;;;;4983764;28;20528;-90
2022/09/18 12:51:44;;;;;;;2.15;0.60;;;14.80;99.90;;;;;;4999057;28;20378;-91
2022/09/18 12:54:28;;;;;;;8.77;0.90;;;14.80;99.90;;;;;;4982516;28;20504;-90
2022/09/18 12:57:20;;;;;;;6.47;0.93;;;14.80;99.90;;;;;;4984433;28;20045;-91
2022/09/18 13:00:12;;;;;;;8.73;0.73;;;14.80;99.90;;;;;;4982147;28;20045;-91
2022/09/18 13:02:51;;;;;;;12.55;0.50;;;14.80;99.90;;;;;;4984099;28;20045;-92
2022/09/18 13:05:39;;;;;;;5.50;0.77;;;14.80;99.90;;;;;;4983931;28;20080;-91
2022/09/18 13:08:20;;;;;;;4.95;0.68;;;14.80;99.90;;;;;;4975635;28;20323;-92
2022/09/18 13:10:49;;;;;;;6.38;0.88;;;14.90;99.90;;;;;;4977566;28;20112;-90
2022/09/18 13:13:43;;;;;;;5.00;1.38;;;15.00;99.90;;;;;;4976014;28;20104;-90
2022/09/18 13:16:12;;;;;;;;;;;14.80;99.90;;;;;;4976372;28;20038;-93
2022/09/18 13:18:45;;;;;;;9.13;0.90;;;14.60;99.90;;;;;;4976495;28;19922;-91
2022/09/18 13:21:40;;;;;;;5.07;0.85;;;14.40;99.90;;;;;;4973926;28;20137;-95
2022/09/18 13:24:13;;;;;;;5.72;0.77;;;14.50;99.90;;;;;;4974770;28;20034;-90
2022/09/18 13:26:39;;;;;;;5.63;1.17;;;13.70;99.90;;;;;;4976119;28;20056;-91
2022/09/18 13:29:42;;;;;;;4.57;0.60;;;13.20;99.90;;;;;;4957467;28;20042;-88
2022/09/18 13:32:09;;;;;;;3.13;0.68;;;12.90;99.90;;;;;;4976049;28;20053;-92
2022/09/18 13:34:38;;;;;;;3.58;0.50;;;12.80;99.90;;;;;;4958503;28;20075;-92
2022/09/18 13:37:05;;;;;;;5.78;0.77;;;12.70;99.90;;;;;;4974644;28;20046;-92
2022/09/18 13:39:32;;;;;;;7.45;1.05;;;12.70;99.90;;;;;;4976724;28;20041;-91
2022/09/18 13:42:00;;;;;;;8.82;0.88;;;12.80;99.90;;;;;;4957825;28;20089;-92
2022/09/18 13:44:33;;;;;;;9.05;0.95;;;13.20;99.90;;;;;;4960604;28;20471;-92
2022/09/18 13:47:10;;;;;;;9.88;2.75;;;12.70;99.90;;;;;;4974174;28;20219;-89
2022/09/18 13:49:51;;;;;;;5.05;1.30;;;12.70;99.90;;;;;;4974663;28;20045;-96
2022/09/18 13:52:30;;;;;;;5.70;0.80;;;13.10;99.90;;;;;;4976316;28;20059;-92
2022/09/18 13:55:12;;;;;;;8.10;0.93;;;12.80;99.90;;;;;;4989362;28;20053;-89
2022/09/18 13:57:39;;;;;;;10.25;1.27;;;12.90;99.90;;;;;;4960980;28;20042;-89
2022/09/18 14:00:20;;;;;;;6.57;1.17;;;13.70;99.90;;;;;;5006007;28;20034;-91
2022/09/18 14:03:08;;;;;;;6.68;0.65;;;12.90;99.90;;;;;;4974543;28;20133;-90
2022/09/18 14:05:33;;;;;;;7.68;0.90;;;12.80;99.90;;;;;;4975617;28;20049;-91
2022/09/18 14:08:03;;;;;;;6.93;2.13;;;12.80;99.90;;;;;;4973096;28;20160;-90
2022/09/18 14:10:36;;;;;;;11.63;1.38;;;12.80;99.90;;;;;;4975658;28;20129;-94
2022/09/18 14:13:17;;;;;;;6.07;0.77;;;12.70;99.90;;;;;;4974581;28;20060;-93
2022/09/18 14:16:10;;;;;;;10.02;0.95;;;12.70;99.90;;;;;;4974586;28;20136;-92
2022/09/18 14:18:45;;;;;;;7.38;1.20;;;12.70;99.90;;;;;;4975613;28;20093;-93
2022/09/18 14:21:16;;;;;;;5.45;1.00;;;12.70;99.90;;;;;;4973458;28;20050;-94
2022/09/18 14:23:45;;;;;;;18.08;3.22;;;12.80;99.90;;;;;;4975804;28;20132;-92
2022/09/18 14:26:33;;;;;;;10.68;1.52;;;12.90;99.90;;;;;;4975258;28;20046;-92
2022/09/18 14:29:02;;;;;;;9.43;0.65;;;12.90;99.90;;;;;;4974628;28;20057;-92
2022/09/18 14:31:31;;;;;;;13.13;1.90;;;13.20;99.90;;;;;;4979451;28;20046;-94
2022/09/18 14:34:20;;;;;;;14.77;1.50;;;13.40;99.90;;;;;;4976331;28;20054;-92